Time;durP1;ratioP1;P1;durP2;ratioP2;P2;SDS_P1;SDS_P2;PMS_P1;PMS_P2;Temp;Humidity;BMP_temperature;BMP_pressure;BME280_temperature;BME280_humidity;BME280_pressure;Samples;Min_cycle;Max_cycle;Signal;HPM_P1;HPM_P2
2022/07/08 00:02:51;;;;;;;1.97;0.50;;;;;;;;;;20908975;28;20244;-85
2022/07/08 00:12:53;;;;;;;0.97;0.47;;;18.90;99.90;;;;;;20909071;28;20200;-84
2022/07/08 00:22:55;;;;;;;0.83;0.50;;;;;;;;;;20908186;28;20227;-85
2022/07/08 00:32:57;;;;;;;1.63;0.60;;;;;;;;;;20907981;28;20266;-86
2022/07/08 00:42:59;;;;;;;1.20;0.50;;;;;;;;;;20907051;28;20236;-86
2022/07/08 00:53:01;;;;;;;2.10;0.63;;;;;;;;;;20890297;28;20204;-85
2022/07/08 01:03:02;;;;;;;2.53;0.50;;;;;;;;;;20962598;28;20284;-86
2022/07/08 01:13:05;;;;;;;1.83;0.77;;;;;;;;;;20891196;28;20252;-84
2022/07/08 01:23:07;;;;;;;2.47;0.70;;;;;;;;;;20904948;28;20240;-85
2022/07/08 01:33:09;;;;;;;2.33;0.60;;;;;;;;;;20905279;28;20218;-86
2022/07/08 01:43:10;;;;;;;1.40;0.40;;;;;;;;;;20921280;28;20215;-85
2022/07/08 01:53:12;;;;;;;1.73;0.67;;;;;;;;;;20904308;28;20223;-86
2022/07/08 02:03:14;;;;;;;1.87;0.60;;;;;;;;;;20887067;28;20223;-86
2022/07/08 02:13:17;;;;;;;1.50;0.50;;;17.80;99.90;;;;;;20919465;28;20208;-84
2022/07/08 02:23:18;;;;;;;1.80;0.50;;;;;;;;;;20885143;28;20238;-85
2022/07/08 02:33:20;;;;;;;1.77;0.60;;;;;;;;;;20900123;28;20251;-85
2022/07/08 02:43:22;;;;;;;1.77;0.50;;;;;;;;;;20924419;28;20215;-86
2022/07/08 02:53:24;;;;;;;2.17;0.83;;;;;;;;;;20951589;28;20289;-85
2022/07/08 03:03:25;;;;;;;4.03;0.70;;;;;;;;;;20920006;28;20226;-85
2022/07/08 03:13:27;;;;;;;8.87;1.13;;;;;;;;;;20901860;28;20252;-85
2022/07/08 03:23:30;;;;;;;0.70;0.43;;;;;;;;;;20884596;28;20292;-86
2022/07/08 03:33:31;;;;;;;1.57;0.57;;;;;;;;;;20911429;28;20613;-86
2022/07/08 03:43:34;;;;;;;2.10;0.50;;;;;;;;;;20915099;28;20281;-85
2022/07/08 03:53:36;;;;;;;1.07;0.60;;;;;;;;;;20914426;28;20202;-88
2022/07/08 04:03:38;;;;;;;1.90;0.70;;;;;;;;;;20882924;28;20230;-85
2022/07/08 04:13:40;;;;;;;1.27;0.57;;;;;;;;;;20897685;28;20280;-86
2022/07/08 04:23:41;;;;;;;1.40;0.60;;;;;;;;;;20901985;28;20229;-84
2022/07/08 04:33:43;;;;;;;1.47;0.60;;;;;;;;;;20925502;28;20214;-84
2022/07/08 04:43:45;;;;;;;2.00;0.50;;;;;;;;;;20931657;28;20233;-85
2022/07/08 04:53:47;;;;;;;2.20;0.87;;;;;;;;;;20893965;28;20198;-85
2022/07/08 05:03:49;;;;;;;4.83;0.90;;;;;;;;;;20893667;28;20643;-85
2022/07/08 05:13:50;;;;;;;2.87;0.90;;;;;;;;;;20877935;28;20225;-84
2022/07/08 05:23:52;;;;;;;1.83;0.53;;;;;;;;;;20914938;28;20283;-85
2022/07/08 05:33:54;;;;;;;1.00;0.50;;;;;;;;;;20892719;28;21210;-85
2022/07/08 05:43:56;;;;;;;1.90;0.40;;;;;;;;;;20908432;28;20779;-84
2022/07/08 05:53:57;;;;;;;0.83;0.30;;;;;;;;;;20875225;28;20218;-84
2022/07/08 06:03:59;;;;;;;1.00;0.50;;;;;;;;;;20913319;28;20227;-85
2022/07/08 06:14:01;;;;;;;0.87;0.50;;;;;;;;;;20935048;28;20218;-84
2022/07/08 06:24:03;;;;;;;1.47;0.77;;;;;;;;;;20929743;28;20703;-85
2022/07/08 06:34:05;;;;;;;1.10;0.40;;;;;;;;;;20904410;28;20808;-84
2022/07/08 06:44:07;;;;;;;3.17;0.50;;;;;;;;;;20962956;28;20317;-84
2022/07/08 07:04:29;;;;;;;1.43;0.30;;;;;;;;;;20919094;28;20292;-85
2022/07/08 07:14:31;;;;;;;2.03;0.43;;;;;;;;;;20905690;28;20556;-84
2022/07/08 07:24:33;;;;;;;2.73;0.50;;;;;;;;;;20900913;28;20319;-84
2022/07/08 07:34:35;;;;;;;0.70;0.40;;;;;;;;;;20900050;28;20254;-83
2022/07/08 07:44:37;;;;;;;1.23;0.40;;;;;;;;;;20882272;28;20229;-85
2022/07/08 07:54:39;;;;;;;1.57;0.60;;;;;;;;;;20898568;28;20532;-84
2022/07/08 08:04:41;;;;;;;0.87;0.37;;;;;;;;;;20915964;28;20272;-84
2022/07/08 08:14:43;;;;;;;1.03;0.40;;;;;;;;;;20902717;28;20219;-83
2022/07/08 08:24:45;;;;;;;0.57;0.40;;;;;;;;;;20879997;28;20626;-83
2022/07/08 08:34:46;;;;;;;0.70;0.30;;;;;;;;;;20894716;28;20257;-85
2022/07/08 08:44:49;;;;;;;1.87;0.40;;;;;;;;;;20910659;28;20230;-84
2022/07/08 08:54:52;;;;;;;3.13;0.50;;;;;;;;;;20879785;28;20219;-84
2022/07/08 09:04:54;;;;;;;0.97;0.30;;;;;;;;;;20927367;28;20747;-84
2022/07/08 09:15:00;;;;;;;3.03;0.40;;;;;;;;;;20894302;28;20743;-84
2022/07/08 09:25:03;;;;;;;0.77;0.30;;;;;;;;;;20893594;28;20298;-84
2022/07/08 09:35:12;;;;;;;0.73;0.40;;;;;;;;;;20909213;28;20220;-83
2022/07/08 09:45:14;;;;;;;2.10;0.50;;;;;;;;;;20907092;28;20232;-83
2022/07/08 09:55:18;;;;;;;2.37;0.80;;;20.80;95.30;;;;;;20924978;28;20762;-84
2022/07/08 10:05:20;;;;;;;1.07;0.40;;;;;;;;;;20928153;28;20591;-84
2022/07/08 10:15:23;;;;;;;0.53;0.30;;;;;;;;;;20905068;28;20226;-85
2022/07/08 10:25:27;;;;;;;1.33;0.40;;;21.70;97.90;;;;;;20904139;28;20270;-84
2022/07/08 10:35:30;;;;;;;0.63;0.40;;;;;;;;;;20887791;28;20238;-83
2022/07/08 10:45:58;;;;;;;0.70;0.60;;;22.20;93.90;;;;;;20902789;28;20235;-83
2022/07/08 10:56:00;;;;;;;2.88;0.50;;;;;;;;;;20905779;28;20282;-84
2022/07/08 11:06:01;;;;;;;2.58;0.57;;;;;;;;;;20904124;28;20293;-81
2022/07/08 11:16:03;;;;;;;1.33;0.38;;;;;;;;;;20917192;28;20203;-82
2022/07/08 11:26:05;;;;;;;1.88;0.40;;;;;;;;;;20916439;28;20306;-83
2022/07/08 11:36:19;;;;;;;0.95;0.40;;;;;;;;;;20915284;28;20279;-82
2022/07/08 11:46:22;;;;;;;1.75;0.55;;;23.50;91.30;;;;;;20922202;28;20226;-83
2022/07/08 11:56:25;;;;;;;1.13;0.32;;;;;;;;;;20921239;28;20772;-82
2022/07/08 12:06:27;;;;;;;1.77;1.30;;;;;;;;;;20897297;28;20222;-82
2022/07/08 12:16:30;;;;;;;0.95;0.50;;;;;;;;;;20880602;28;20207;-82
2022/07/08 12:26:33;;;;;;;0.75;0.40;;;;;;;;;;20913223;28;20234;-82
2022/07/08 12:36:35;;;;;;;2.22;0.63;;;;;;;;;;20895172;28;20227;-82
2022/07/08 12:46:38;;;;;;;1.52;0.50;;;;;;;;;;20910318;28;20274;-81
2022/07/08 12:56:40;;;;;;;2.40;0.60;;;;;;;;;;20899322;28;20208;-82
2022/07/08 13:06:42;;;;;;;1.83;0.80;;;;;;;;;;20911238;28;20275;-83
2022/07/08 13:17:02;;;;;;;0.88;0.40;;;;;;;;;;20908157;28;20276;-82
2022/07/08 13:27:05;;;;;;;1.60;0.43;;;;;;;;;;20926503;28;20275;-82
2022/07/08 13:37:08;;;;;;;2.95;0.60;;;;;;;;;;20908849;28;20214;-82
2022/07/08 13:47:10;;;;;;;1.27;0.30;;;;;;;;;;20912540;28;20735;-82
2022/07/08 13:57:12;;;;;;;1.05;0.50;;;;;;;;;;20908938;28;20217;-82
2022/07/08 14:07:13;;;;;;;1.80;0.40;;;;;;;;;;20906231;28;20751;-82
2022/07/08 14:17:16;;;;;;;0.88;0.40;;;;;;;;;;20905918;28;20274;-83
2022/07/08 14:27:18;;;;;;;1.25;0.40;;;;;;;;;;20906024;28;20715;-82
2022/07/08 14:37:20;;;;;;;0.60;0.40;;;;;;;;;;20923341;28;20228;-82
2022/07/08 14:47:22;;;;;;;0.75;0.40;;;;;;;;;;20922804;28;20254;-82
2022/07/08 14:57:24;;;;;;;3.45;0.50;;;;;;;;;;20914772;28;20228;-83
2022/07/08 15:07:26;;;;;;;0.85;0.75;;;;;;;;;;20898542;28;20202;-82
2022/07/08 15:17:28;;;;;;;1.60;0.40;;;;;;;;;;20897133;28;20211;-82
2022/07/08 15:27:30;;;;;;;1.00;0.50;;;;;;;;;;20896588;28;20217;-83
2022/07/08 15:37:31;;;;;;;2.33;0.40;;;;;;;;;;20914142;28;20274;-82
2022/07/08 15:47:34;;;;;;;1.27;0.40;;;;;;;;;;20914664;28;20230;-82
2022/07/08 15:57:38;;;;;;;2.50;0.40;;;;;;;;;;20878000;28;20239;-82
2022/07/08 16:07:39;;;;;;;0.85;0.40;;;;;;;;;;20909655;28;20223;-82
2022/07/08 16:17:41;;;;;;;0.65;0.35;;;;;;;;;;20892660;28;20254;-80
2022/07/08 16:27:43;;;;;;;1.20;0.47;;;;;;;;;;20909051;28;20196;-82
2022/07/08 16:37:44;;;;;;;0.70;0.45;;;;;;;;;;20873871;28;20212;-83
2022/07/08 16:47:46;;;;;;;2.33;0.60;;;;;;;;;;20889223;28;20333;-84
2022/07/08 16:57:48;;;;;;;0.93;0.52;;;;;;;;;;20888901;28;20618;-82
2022/07/08 17:07:50;;;;;;;1.05;0.50;;;;;;;;;;20888430;28;20607;-83
2022/07/08 17:17:51;;;;;;;1.75;0.60;;;;;;;;;;20889572;28;20205;-82
2022/07/08 17:27:53;;;;;;;2.70;0.47;;;;;;;;;;20888458;28;20231;-82
2022/07/08 17:37:55;;;;;;;2.03;0.40;;;;;;;;;;20904540;28;20233;-84
2022/07/08 17:47:57;;;;;;;2.25;0.77;;;;;;;;;;20904259;28;20290;-86
2022/07/08 17:57:59;;;;;;;5.90;0.65;;;;;;;;;;20889677;28;20228;-85
2022/07/08 18:08:01;;;;;;;1.90;0.60;;;;;;;;;;20884839;28;20208;-85
2022/07/08 18:18:02;;;;;;;3.35;0.80;;;;;;;;;;20901893;28;20504;-85
2022/07/08 18:28:04;;;;;;;0.93;0.50;;;25.50;87.60;;;;;;20884140;28;20567;-84
2022/07/08 18:38:06;;;;;;;1.35;0.50;;;;;;;;;;20899653;28;20302;-85
2022/07/08 18:48:08;;;;;;;4.05;0.68;;;;;;;;;;20882817;28;20282;-85
2022/07/08 18:58:09;;;;;;;1.00;0.47;;;;;;;;;;20882197;28;20216;-85
2022/07/08 19:08:11;;;;;;;1.90;0.40;;;;;;;;;;20914115;28;20765;-84
2022/07/08 19:18:16;;;;;;;0.82;0.60;;;;;;;;;;20897972;28;20302;-84
2022/07/08 19:28:18;;;;;;;1.30;0.40;;;;;;;;;;20896703;28;20779;-85
2022/07/08 19:38:20;;;;;;;1.67;0.60;;;;;;;;;;20913806;28;20228;-84
2022/07/08 19:48:21;;;;;;;3.95;0.40;;;;;;;;;;20897085;28;20205;-85
2022/07/08 19:58:23;;;;;;;0.93;0.40;;;;;;;;;;20938272;28;20214;-86
2022/07/08 20:08:25;;;;;;;1.73;0.40;;;;;;;;;;20910636;28;20218;-85
2022/07/08 20:18:26;;;;;;;0.90;0.47;;;;;;;;;;20876562;28;20272;-85
2022/07/08 20:28:28;;;;;;;1.70;0.60;;;;;;;;;;20908322;28;20368;-85
2022/07/08 20:38:30;;;;;;;0.75;0.50;;;;;;;;;;20891666;28;20278;-85
2022/07/08 20:48:32;;;;;;;0.52;0.30;;;;;;;;;;20892988;28;20348;-84
2022/07/08 20:58:34;;;;;;;2.40;0.80;;;;;;;;;;20910384;28;20278;-85
2022/07/08 21:08:36;;;;;;;3.40;0.68;;;;;;;;;;20893475;28;20272;-85
2022/07/08 21:18:40;;;;;;;1.20;0.40;;;;;;;;;;20894324;28;20240;-85
2022/07/08 21:28:42;;;;;;;5.13;0.88;;;;;;;;;;20898467;28;20279;-85
2022/07/08 21:38:44;;;;;;;1.00;0.40;;;;;;;;;;20888799;28;20611;-85
2022/07/08 21:48:48;;;;;;;1.48;0.60;;;;;;;;;;20891902;28;20221;-85
2022/07/08 21:58:51;;;;;;;1.90;0.80;;;;;;;;;;20926130;28;20229;-85
2022/07/08 22:08:52;;;;;;;1.40;0.80;;;;;;;;;;20909082;28;20212;-85
2022/07/08 22:18:54;;;;;;;1.52;0.60;;;;;;;;;;20936328;28;20238;-84
2022/07/08 22:28:56;;;;;;;1.00;0.60;;;;;;;;;;20908357;28;20584;-85
2022/07/08 22:39:00;;;;;;;1.25;0.65;;;;;;;;;;20906034;28;20706;-83
2022/07/08 22:49:02;;;;;;;1.40;0.57;;;;;;;;;;20886543;28;20623;-84
2022/07/08 22:59:04;;;;;;;3.10;0.63;;;;;;;;;;20919287;28;20240;-85
2022/07/08 23:09:06;;;;;;;1.05;0.50;;;;;;;;;;20885570;28;20229;-85
2022/07/08 23:19:08;;;;;;;1.98;0.60;;;;;;;;;;20906400;28;20278;-84
2022/07/08 23:29:09;;;;;;;1.27;0.47;;;;;;;;;;20900566;28;20220;-85
2022/07/08 23:39:11;;;;;;;1.85;0.50;;;;;;;;;;20915832;28;20231;-83
2022/07/08 23:49:13;;;;;;;0.75;0.50;;;;;;;;;;20898175;28;20603;-84
2022/07/08 23:59:15;;;;;;;1.75;0.60;;;;;;;;;;20915314;28;20526;-84
